Lawrenceville, GA (30045)

2:47 AM EST on March 01, 2015 (GMT -0500)
Hanarry Estates North | Change Station
CLOSE
Current Station
Personal Weather Station
Location: Lawrenceville, GA
Elevation: 1001 ft
Nearby Weather Stations

Elev 1001 ft 33.94 °N, 84.00 °W | Updated 5 minutes ago

Overcast
Overcast
36.5 °F
Feels Like 36 °F
N
1.6
Wind Variable Wind from ESE

Today
High -- | Low -- °F
--% Chance of Precip.
Yesterday
High -- | Low -- °F
Precip. -- in
7:04 AM 6:32 PM
Waxing Gibbous, 83% visible
Pressure 30.58 in
Visibility 7.0 miles
Clouds Scattered Clouds 1200 ft
Mostly Cloudy 2100 ft
Overcast 3800 ft
Windchill 36 °F
Dew Point 31 °F
Humidity 79%
Rainfall 0.00 in
Snow Depth Not available.
UV 0 out of 12
Pollen 7.30 out of 12
Air Quality Not available.
Flu Activity Not available.
METAR KWDR 010735Z AUTO 07007KT 7SM SCT012 BKN021 OVC038 03/02 A3058 RMK AO1

More Conditions Fewer Conditions

Pressure 30.58 in
Visibility 7.0 miles
Clouds Scattered Clouds 1200 ft
Mostly Cloudy 2100 ft
Overcast 3800 ft
Windchill 36 °F
Dew Point 31 °F
Humidity 79%
Rainfall 0.00 in
Snow Depth Not available.
UV 0 out of 12
Pollen 7.30 out of 12
Air Quality Not available.
Flu Activity Not available.
METAR KWDR 010735Z AUTO 07007KT 7SM SCT012 BKN021 OVC038 03/02 A3058 RMK AO1

More Conditions Fewer Conditions

10-Day Weather Forecast

Almanac

Astronomy

Mar. 01, 2015 Rise Set
Actual Time
Civil Twilight
Nautical Twilight
Astronomical Twilight
Moon
Length of Visible Light
Length of Day
Tomorrow will be .
, % of the Moon is Illuminated

Today's Extremes

State Highs State Lows

Community

WunderPhotos

Upload Photos

1,801,347 photos uploaded!

WunderBlogs® & News

Nearby

Air Quality

  Air Quality AQ Index Pollutant
Not available.

Snow Depth

Station Depth Elevation

Earthquake Activity

City Distance Mag. Time & Date
Minimum magnitude displayed is 2.5.

Coastal Water Temperatures

Place Temperature

Nearby Weather Stations